RYR14RE EGSS-EIDW
Flight info
| Callsign | RYR14RE |
|---|---|
| Flight time | 0h 53m |
| Altitude | 32000 |
| Route | NUGBO M183 SILVA P86 DIDZA N14 OKSAW DCT BIBPE DCT OKTAD DCT MEDOG DCT KRAGY DCT PEMOB M17 VATRY VATRY4L |
| Aircraft | B38M/M-SADE3FGILRWY/SB1 |
Departure
| Time | 2026-05-05 10:38 |
|---|---|
| Airport | London Stansted Airport (EGSS) |
Arrival
| Time | 2026-05-05 11:31 |
|---|---|
| Airport | Dublin Airport (EIDW) |
| Time | Latitude | Longitude | Altitude | Speed | Heading |
|---|---|---|---|---|---|
| 2026-05-05 10:07 | 51.89113 | 0.25576 | 341 ft | 0 kts | 43° |
| 2026-05-05 10:26 | 51.89103 | 0.25561 | 340 ft | 2 kts | 43° |
| 2026-05-05 10:27 | 51.89096 | 0.25550 | 340 ft | 1 kts | 43° |
| 2026-05-05 10:27 | 51.89084 | 0.25536 | 340 ft | 2 kts | 15° |
| 2026-05-05 10:27 | 51.89069 | 0.25534 | 339 ft | 2 kts | 351° |
| 2026-05-05 10:27 | 51.89055 | 0.25542 | 339 ft | 2 kts | 325° |
| 2026-05-05 10:28 | 51.89049 | 0.25550 | 339 ft | 1 kts | 311° |
| 2026-05-05 10:28 | 51.89045 | 0.25557 | 339 ft | 0 kts | 311° |
| 2026-05-05 10:31 | 51.89050 | 0.25548 | 339 ft | 3 kts | 311° |
| 2026-05-05 10:31 | 51.89073 | 0.25507 | 339 ft | 5 kts | 313° |
| 2026-05-05 10:31 | 51.89105 | 0.25453 | 339 ft | 6 kts | 313° |
| 2026-05-05 10:31 | 51.89141 | 0.25390 | 340 ft | 11 kts | 313° |
| 2026-05-05 10:32 | 51.89158 | 0.25359 | 340 ft | 1 kts | 307° |
| 2026-05-05 10:32 | 51.89174 | 0.25310 | 341 ft | 10 kts | 280° |
| 2026-05-05 10:32 | 51.89111 | 0.25178 | 339 ft | 17 kts | 229° |
| 2026-05-05 10:32 | 51.89022 | 0.25039 | 335 ft | 18 kts | 224° |
| 2026-05-05 10:33 | 51.88913 | 0.24874 | 332 ft | 26 kts | 223° |
| 2026-05-05 10:33 | 51.88774 | 0.24666 | 329 ft | 27 kts | 223° |
| 2026-05-05 10:33 | 51.88639 | 0.24464 | 330 ft | 25 kts | 222° |
| 2026-05-05 10:33 | 51.88510 | 0.24270 | 331 ft | 24 kts | 223° |
| 2026-05-05 10:34 | 51.88390 | 0.24088 | 332 ft | 22 kts | 223° |
| 2026-05-05 10:34 | 51.88267 | 0.23907 | 336 ft | 26 kts | 222° |
| 2026-05-05 10:34 | 51.88121 | 0.23691 | 340 ft | 28 kts | 224° |
| 2026-05-05 10:34 | 51.87981 | 0.23478 | 340 ft | 27 kts | 223° |
| 2026-05-05 10:35 | 51.87849 | 0.23279 | 340 ft | 23 kts | 221° |
| 2026-05-05 10:35 | 51.87753 | 0.23135 | 339 ft | 11 kts | 223° |
| 2026-05-05 10:35 | 51.87741 | 0.23023 | 339 ft | 11 kts | 301° |
| 2026-05-05 10:35 | 51.87783 | 0.22896 | 339 ft | 14 kts | 251° |
| 2026-05-05 10:36 | 51.87704 | 0.22766 | 338 ft | 19 kts | 221° |
| 2026-05-05 10:36 | 51.87604 | 0.22619 | 338 ft | 18 kts | 224° |
| 2026-05-05 10:36 | 51.87513 | 0.22479 | 338 ft | 18 kts | 223° |
| 2026-05-05 10:36 | 51.87423 | 0.22337 | 336 ft | 18 kts | 232° |
| 2026-05-05 10:37 | 51.87431 | 0.22156 | 336 ft | 17 kts | 310° |
| 2026-05-05 10:37 | 51.87509 | 0.22029 | 335 ft | 11 kts | 339° |
| 2026-05-05 10:37 | 51.87604 | 0.22137 | 337 ft | 39 kts | 43° |
| 2026-05-05 10:37 | 51.87967 | 0.22688 | 341 ft | 102 kts | 40° |
| 2026-05-05 10:38 | 51.88618 | 0.23656 | 338 ft | 151 kts | 42° |
| 2026-05-05 10:38 | 51.89441 | 0.24888 | 711 ft | 160 kts | 42° |
| 2026-05-05 10:38 | 51.90248 | 0.26108 | 1277 ft | 166 kts | 41° |
| 2026-05-05 10:38 | 51.91076 | 0.27380 | 1896 ft | 168 kts | 41° |
| 2026-05-05 10:39 | 51.91963 | 0.28710 | 2336 ft | 180 kts | 41° |
| 2026-05-05 10:39 | 51.93040 | 0.29837 | 2687 ft | 195 kts | 17° |
| 2026-05-05 10:39 | 51.94453 | 0.29874 | 3068 ft | 216 kts | 347° |
| 2026-05-05 10:39 | 51.95863 | 0.28795 | 3512 ft | 235 kts | 323° |
| 2026-05-05 10:40 | 51.96841 | 0.26648 | 4127 ft | 247 kts | 291° |
| 2026-05-05 10:40 | 51.97210 | 0.23939 | 4831 ft | 251 kts | 279° |
| 2026-05-05 10:40 | 51.97426 | 0.21144 | 5516 ft | 253 kts | 279° |
| 2026-05-05 10:40 | 51.97671 | 0.18332 | 6213 ft | 257 kts | 280° |
| 2026-05-05 10:41 | 51.97973 | 0.15403 | 6674 ft | 272 kts | 281° |
| 2026-05-05 10:41 | 51.98313 | 0.12328 | 7104 ft | 279 kts | 281° |
| 2026-05-05 10:41 | 51.98658 | 0.09243 | 7528 ft | 281 kts | 281° |
| 2026-05-05 10:41 | 51.98920 | 0.06106 | 7953 ft | 282 kts | 273° |
| 2026-05-05 10:42 | 51.98337 | -0.00201 | 8818 ft | 286 kts | 257° |
| 2026-05-05 10:42 | 51.97761 | -0.03261 | 9226 ft | 288 kts | 246° |
| 2026-05-05 10:42 | 51.96796 | -0.06075 | 9650 ft | 289 kts | 238° |
| 2026-05-05 10:43 | 51.95670 | -0.08819 | 10082 ft | 292 kts | 236° |
| 2026-05-05 10:43 | 51.94510 | -0.11543 | 10529 ft | 303 kts | 236° |
| 2026-05-05 10:43 | 51.93281 | -0.14410 | 10949 ft | 318 kts | 236° |
| 2026-05-05 10:43 | 51.91998 | -0.17397 | 11358 ft | 333 kts | 236° |
| 2026-05-05 10:44 | 51.90652 | -0.20529 | 11899 ft | 343 kts | 236° |
| 2026-05-05 10:44 | 51.89288 | -0.23701 | 12630 ft | 347 kts | 236° |
| 2026-05-05 10:44 | 51.87904 | -0.26917 | 13363 ft | 351 kts | 236° |
| 2026-05-05 10:44 | 51.86518 | -0.30130 | 14078 ft | 356 kts | 236° |
| 2026-05-05 10:45 | 51.85089 | -0.33406 | 14811 ft | 360 kts | 234° |
| 2026-05-05 10:45 | 51.83561 | -0.36609 | 15570 ft | 363 kts | 232° |
| 2026-05-05 10:45 | 51.81956 | -0.39811 | 16138 ft | 369 kts | 231° |
| 2026-05-05 10:45 | 51.80370 | -0.42940 | 17102 ft | 365 kts | 231° |
| 2026-05-05 10:46 | 51.78756 | -0.46134 | 17801 ft | 369 kts | 231° |
| 2026-05-05 10:46 | 51.77146 | -0.49348 | 18489 ft | 372 kts | 231° |
| 2026-05-05 10:46 | 51.75739 | -0.52854 | 19091 ft | 378 kts | 248° |
| 2026-05-05 10:46 | 51.75076 | -0.56909 | 19808 ft | 380 kts | 262° |
| 2026-05-05 10:47 | 51.74867 | -0.61168 | 20385 ft | 384 kts | 268° |
| 2026-05-05 10:47 | 51.74836 | -0.65490 | 20979 ft | 388 kts | 268° |
| 2026-05-05 10:47 | 51.74819 | -0.69829 | 21550 ft | 391 kts | 268° |
| 2026-05-05 10:47 | 51.74770 | -0.74234 | 22118 ft | 395 kts | 267° |
| 2026-05-05 10:48 | 51.74674 | -0.78643 | 22699 ft | 398 kts | 266° |
| 2026-05-05 10:48 | 51.74538 | -0.83087 | 23293 ft | 400 kts | 265° |
| 2026-05-05 10:48 | 51.74369 | -0.87584 | 23859 ft | 403 kts | 265° |
| 2026-05-05 10:48 | 51.74182 | -0.92046 | 24442 ft | 405 kts | 264° |
| 2026-05-05 10:49 | 51.73983 | -0.96562 | 25010 ft | 407 kts | 264° |
| 2026-05-05 10:49 | 51.73774 | -1.01141 | 25564 ft | 409 kts | 264° |
| 2026-05-05 10:49 | 51.73561 | -1.05706 | 26070 ft | 412 kts | 264° |
| 2026-05-05 10:49 | 51.73343 | -1.10299 | 26539 ft | 416 kts | 264° |
| 2026-05-05 10:50 | 51.73119 | -1.14993 | 27046 ft | 418 kts | 264° |
| 2026-05-05 10:50 | 51.72895 | -1.19642 | 27592 ft | 419 kts | 264° |
| 2026-05-05 10:50 | 51.72672 | -1.24242 | 28421 ft | 413 kts | 263° |
| 2026-05-05 10:50 | 51.72448 | -1.28860 | 29076 ft | 412 kts | 263° |
| 2026-05-05 10:51 | 51.72220 | -1.33486 | 29728 ft | 410 kts | 263° |
| 2026-05-05 10:51 | 51.71995 | -1.38005 | 30354 ft | 407 kts | 263° |
| 2026-05-05 10:51 | 51.71770 | -1.42522 | 31039 ft | 404 kts | 263° |
| 2026-05-05 10:51 | 51.71543 | -1.47015 | 31472 ft | 405 kts | 263° |
| 2026-05-05 10:52 | 51.71313 | -1.51515 | 31758 ft | 408 kts | 263° |
| 2026-05-05 10:52 | 51.71078 | -1.56062 | 31958 ft | 411 kts | 263° |
| 2026-05-05 10:52 | 51.70839 | -1.60658 | 31983 ft | 409 kts | 263° |
| 2026-05-05 10:53 | 51.70585 | -1.69729 | 31993 ft | 407 kts | 269° |
| 2026-05-05 10:53 | 51.71044 | -1.78784 | 31992 ft | 410 kts | 274° |
| 2026-05-05 10:54 | 51.71831 | -1.87723 | 31993 ft | 397 kts | 279° |
| 2026-05-05 10:54 | 51.73110 | -1.96354 | 31993 ft | 399 kts | 282° |
| 2026-05-05 10:55 | 51.74486 | -2.04991 | 31995 ft | 399 kts | 281° |
| 2026-05-05 10:55 | 51.75825 | -2.13684 | 31995 ft | 399 kts | 281° |
| 2026-05-05 10:56 | 51.77120 | -2.22344 | 31997 ft | 401 kts | 281° |
| 2026-05-05 10:56 | 51.78405 | -2.31105 | 31997 ft | 401 kts | 281° |
| 2026-05-05 10:57 | 51.79674 | -2.39852 | 31998 ft | 403 kts | 281° |
| 2026-05-05 10:57 | 51.80942 | -2.48635 | 31988 ft | 404 kts | 281° |
| 2026-05-05 10:58 | 51.82230 | -2.57676 | 32000 ft | 425 kts | 281° |
| 2026-05-05 10:58 | 51.83527 | -2.67168 | 31996 ft | 444 kts | 280° |
| 2026-05-05 10:59 | 51.84851 | -2.77046 | 31997 ft | 453 kts | 281° |
| 2026-05-05 10:59 | 51.86779 | -2.86632 | 31996 ft | 449 kts | 291° |
| 2026-05-05 11:00 | 51.89370 | -2.95923 | 32000 ft | 453 kts | 294° |
| 2026-05-05 11:00 | 51.91991 | -3.05093 | 32009 ft | 453 kts | 294° |
| 2026-05-05 11:01 | 51.94572 | -3.14386 | 32011 ft | 454 kts | 293° |
| 2026-05-05 11:01 | 51.97095 | -3.23709 | 31999 ft | 455 kts | 293° |
| 2026-05-05 11:02 | 51.99594 | -3.33102 | 32011 ft | 457 kts | 293° |
| 2026-05-05 11:02 | 52.02082 | -3.42541 | 32008 ft | 458 kts | 293° |
| 2026-05-05 11:03 | 52.04582 | -3.52056 | 32011 ft | 458 kts | 294° |
| 2026-05-05 11:03 | 52.07091 | -3.61456 | 32002 ft | 456 kts | 295° |
| 2026-05-05 11:04 | 52.09615 | -3.70868 | 32001 ft | 444 kts | 294° |
| 2026-05-05 11:04 | 52.10815 | -3.75363 | 32001 ft | 426 kts | 295° |
| 2026-05-05 11:04 | 52.11958 | -3.79662 | 32013 ft | 410 kts | 295° |
| 2026-05-05 11:05 | 52.14166 | -3.87998 | 31895 ft | 403 kts | 295° |
| 2026-05-05 11:05 | 52.15272 | -3.92176 | 31654 ft | 403 kts | 295° |
| 2026-05-05 11:05 | 52.16371 | -3.96336 | 31366 ft | 398 kts | 295° |
| 2026-05-05 11:05 | 52.17441 | -4.00399 | 31116 ft | 393 kts | 295° |
| 2026-05-05 11:06 | 52.18511 | -4.04469 | 30861 ft | 391 kts | 295° |
| 2026-05-05 11:06 | 52.19578 | -4.08535 | 30588 ft | 389 kts | 295° |
| 2026-05-05 11:06 | 52.20639 | -4.12584 | 30322 ft | 388 kts | 295° |
| 2026-05-05 11:06 | 52.21697 | -4.16627 | 30048 ft | 386 kts | 295° |
| 2026-05-05 11:07 | 52.22727 | -4.20576 | 29830 ft | 382 kts | 295° |
| 2026-05-05 11:07 | 52.24797 | -4.28533 | 29796 ft | 380 kts | 295° |
| 2026-05-05 11:08 | 52.26856 | -4.36475 | 29798 ft | 381 kts | 295° |
| 2026-05-05 11:08 | 52.28898 | -4.44384 | 29802 ft | 382 kts | 295° |
| 2026-05-05 11:09 | 52.30957 | -4.52378 | 29517 ft | 383 kts | 295° |
| 2026-05-05 11:09 | 52.31981 | -4.56369 | 29109 ft | 378 kts | 294° |
| 2026-05-05 11:09 | 52.32997 | -4.60288 | 28655 ft | 374 kts | 297° |
| 2026-05-05 11:09 | 52.34330 | -4.63867 | 27948 ft | 375 kts | 309° |
| 2026-05-05 11:10 | 52.36111 | -4.66964 | 27085 ft | 381 kts | 318° |
| 2026-05-05 11:10 | 52.38152 | -4.69735 | 26254 ft | 385 kts | 321° |
| 2026-05-05 11:10 | 52.40248 | -4.72403 | 25494 ft | 387 kts | 321° |
| 2026-05-05 11:10 | 52.42360 | -4.75122 | 24861 ft | 385 kts | 320° |
| 2026-05-05 11:11 | 52.44447 | -4.77882 | 24056 ft | 387 kts | 319° |
| 2026-05-05 11:11 | 52.46511 | -4.80695 | 23466 ft | 384 kts | 318° |
| 2026-05-05 11:11 | 52.48516 | -4.83492 | 22899 ft | 380 kts | 318° |
| 2026-05-05 11:11 | 52.50478 | -4.86273 | 22325 ft | 376 kts | 317° |
| 2026-05-05 11:12 | 52.52453 | -4.89105 | 21759 ft | 372 kts | 317° |
| 2026-05-05 11:12 | 52.54375 | -4.91880 | 21189 ft | 369 kts | 317° |
| 2026-05-05 11:12 | 52.56274 | -4.94635 | 20656 ft | 365 kts | 317° |
| 2026-05-05 11:12 | 52.58153 | -4.97370 | 20074 ft | 363 kts | 317° |
| 2026-05-05 11:13 | 52.60022 | -5.00097 | 19548 ft | 359 kts | 317° |
| 2026-05-05 11:13 | 52.61891 | -5.02829 | 18989 ft | 356 kts | 317° |
| 2026-05-05 11:13 | 52.63722 | -5.05511 | 18457 ft | 352 kts | 317° |
| 2026-05-05 11:13 | 52.65531 | -5.08164 | 17951 ft | 348 kts | 317° |
| 2026-05-05 11:14 | 52.67290 | -5.10747 | 17673 ft | 337 kts | 317° |
| 2026-05-05 11:14 | 52.69015 | -5.13281 | 17416 ft | 327 kts | 317° |
| 2026-05-05 11:14 | 52.70666 | -5.15710 | 17168 ft | 317 kts | 317° |
| 2026-05-05 11:14 | 52.72292 | -5.18105 | 16926 ft | 308 kts | 317° |
| 2026-05-05 11:15 | 52.73866 | -5.20426 | 16598 ft | 304 kts | 317° |
| 2026-05-05 11:15 | 52.75442 | -5.22753 | 16201 ft | 301 kts | 317° |
| 2026-05-05 11:15 | 52.76976 | -5.25020 | 15820 ft | 298 kts | 317° |
| 2026-05-05 11:15 | 52.78521 | -5.27306 | 15431 ft | 296 kts | 317° |
| 2026-05-05 11:16 | 52.80030 | -5.29539 | 15059 ft | 293 kts | 317° |
| 2026-05-05 11:16 | 52.81547 | -5.31784 | 14676 ft | 291 kts | 318° |
| 2026-05-05 11:16 | 52.83029 | -5.33980 | 14300 ft | 288 kts | 318° |
| 2026-05-05 11:16 | 52.84521 | -5.36196 | 13927 ft | 285 kts | 318° |
| 2026-05-05 11:17 | 52.85981 | -5.38365 | 13566 ft | 283 kts | 318° |
| 2026-05-05 11:17 | 52.87437 | -5.40529 | 13200 ft | 280 kts | 318° |
| 2026-05-05 11:17 | 52.88864 | -5.42652 | 12842 ft | 278 kts | 318° |
| 2026-05-05 11:17 | 52.90297 | -5.44785 | 12478 ft | 276 kts | 318° |
| 2026-05-05 11:18 | 52.91715 | -5.46898 | 12115 ft | 273 kts | 318° |
| 2026-05-05 11:18 | 52.93107 | -5.48976 | 11764 ft | 271 kts | 319° |
| 2026-05-05 11:18 | 52.94507 | -5.51068 | 11412 ft | 268 kts | 319° |
| 2026-05-05 11:18 | 52.95883 | -5.53125 | 11072 ft | 266 kts | 319° |
| 2026-05-05 11:19 | 52.97248 | -5.55167 | 10720 ft | 264 kts | 319° |
| 2026-05-05 11:19 | 52.98591 | -5.57179 | 10375 ft | 262 kts | 319° |
| 2026-05-05 11:19 | 52.99932 | -5.59189 | 10040 ft | 259 kts | 319° |
| 2026-05-05 11:19 | 53.01387 | -5.61004 | 9834 ft | 263 kts | 332° |
| 2026-05-05 11:20 | 53.03023 | -5.62347 | 9630 ft | 267 kts | 336° |
| 2026-05-05 11:20 | 53.04705 | -5.63615 | 9176 ft | 268 kts | 336° |
| 2026-05-05 11:20 | 53.06378 | -5.64948 | 8846 ft | 266 kts | 334° |
| 2026-05-05 11:20 | 53.08025 | -5.66332 | 8593 ft | 267 kts | 333° |
| 2026-05-05 11:21 | 53.09671 | -5.67751 | 8344 ft | 266 kts | 333° |
| 2026-05-05 11:21 | 53.11285 | -5.69154 | 8092 ft | 261 kts | 333° |
| 2026-05-05 11:21 | 53.12881 | -5.70545 | 7837 ft | 254 kts | 333° |
| 2026-05-05 11:21 | 53.14426 | -5.71890 | 7583 ft | 249 kts | 333° |
| 2026-05-05 11:22 | 53.15948 | -5.73216 | 7333 ft | 245 kts | 333° |
| 2026-05-05 11:22 | 53.17456 | -5.74528 | 7075 ft | 242 kts | 333° |
| 2026-05-05 11:22 | 53.18919 | -5.75803 | 6824 ft | 239 kts | 333° |
| 2026-05-05 11:22 | 53.20391 | -5.77087 | 6571 ft | 236 kts | 333° |
| 2026-05-05 11:23 | 53.21831 | -5.78344 | 6316 ft | 233 kts | 333° |
| 2026-05-05 11:23 | 53.23254 | -5.79587 | 6061 ft | 231 kts | 333° |
| 2026-05-05 11:23 | 53.24649 | -5.80807 | 5823 ft | 226 kts | 333° |
| 2026-05-05 11:23 | 53.26025 | -5.82011 | 5565 ft | 221 kts | 333° |
| 2026-05-05 11:24 | 53.27368 | -5.83187 | 5304 ft | 217 kts | 333° |
| 2026-05-05 11:24 | 53.28708 | -5.84362 | 5044 ft | 214 kts | 333° |
| 2026-05-05 11:24 | 53.30009 | -5.85503 | 4790 ft | 211 kts | 334° |
| 2026-05-05 11:24 | 53.31297 | -5.86633 | 4535 ft | 209 kts | 334° |
| 2026-05-05 11:25 | 53.32579 | -5.87758 | 4278 ft | 206 kts | 334° |
| 2026-05-05 11:25 | 53.33166 | -5.88274 | 4161 ft | 205 kts | 334° |
| 2026-05-05 11:25 | 53.34418 | -5.89374 | 3904 ft | 204 kts | 334° |
| 2026-05-05 11:25 | 53.35656 | -5.90464 | 3730 ft | 198 kts | 334° |
| 2026-05-05 11:26 | 53.36865 | -5.91528 | 3600 ft | 191 kts | 334° |
| 2026-05-05 11:26 | 53.38014 | -5.92541 | 3498 ft | 183 kts | 334° |
| 2026-05-05 11:26 | 53.39110 | -5.93510 | 3416 ft | 179 kts | 333° |
| 2026-05-05 11:26 | 53.40104 | -5.94773 | 3393 ft | 184 kts | 310° |
| 2026-05-05 11:27 | 53.40668 | -5.96722 | 3400 ft | 189 kts | 289° |
| 2026-05-05 11:27 | 53.40865 | -5.98877 | 3385 ft | 185 kts | 274° |
| 2026-05-05 11:27 | 53.40772 | -6.01087 | 3132 ft | 193 kts | 269° |
| 2026-05-05 11:27 | 53.40774 | -6.03296 | 2839 ft | 189 kts | 278° |
| 2026-05-05 11:28 | 53.40905 | -6.05459 | 2577 ft | 185 kts | 280° |
| 2026-05-05 11:28 | 53.41043 | -6.07611 | 2315 ft | 185 kts | 279° |
| 2026-05-05 11:28 | 53.41159 | -6.09724 | 2060 ft | 182 kts | 279° |
| 2026-05-05 11:28 | 53.41276 | -6.11803 | 1810 ft | 177 kts | 279° |
| 2026-05-05 11:29 | 53.41387 | -6.13761 | 1581 ft | 161 kts | 279° |
| 2026-05-05 11:29 | 53.41488 | -6.15525 | 1378 ft | 149 kts | 279° |
| 2026-05-05 11:29 | 53.41577 | -6.17214 | 1176 ft | 142 kts | 278° |
| 2026-05-05 11:29 | 53.41663 | -6.18833 | 996 ft | 137 kts | 279° |
| 2026-05-05 11:30 | 53.41753 | -6.20434 | 813 ft | 137 kts | 278° |
| 2026-05-05 11:30 | 53.41863 | -6.22038 | 604 ft | 140 kts | 278° |
| 2026-05-05 11:30 | 53.41956 | -6.23682 | 420 ft | 143 kts | 277° |
| 2026-05-05 11:30 | 53.42042 | -6.25342 | 227 ft | 141 kts | 277° |
| 2026-05-05 11:31 | 53.42120 | -6.26731 | 222 ft | 83 kts | 274° |
| 2026-05-05 11:31 | 53.42157 | -6.27424 | 229 ft | 50 kts | 276° |
| 2026-05-05 11:31 | 53.42198 | -6.27811 | 233 ft | 29 kts | 290° |
| 2026-05-05 11:31 | 53.42258 | -6.28009 | 234 ft | 13 kts | 301° |
| 2026-05-05 11:32 | 53.42284 | -6.28084 | 235 ft | 5 kts | 302° |
| 2026-05-05 11:32 | 53.42305 | -6.28122 | 236 ft | 3 kts | 327° |
| 2026-05-05 11:32 | 53.42343 | -6.28130 | 236 ft | 8 kts | 18° |
| 2026-05-05 11:32 | 53.42364 | -6.28010 | 234 ft | 13 kts | 98° |
| 2026-05-05 11:33 | 53.42354 | -6.27860 | 234 ft | 12 kts | 95° |
| 2026-05-05 11:33 | 53.42346 | -6.27702 | 231 ft | 14 kts | 95° |
| 2026-05-05 11:33 | 53.42336 | -6.27527 | 230 ft | 15 kts | 96° |
| 2026-05-05 11:33 | 53.42326 | -6.27344 | 230 ft | 16 kts | 95° |
| 2026-05-05 11:34 | 53.42313 | -6.27116 | 227 ft | 22 kts | 95° |
| 2026-05-05 11:34 | 53.42300 | -6.26864 | 226 ft | 21 kts | 95° |
| 2026-05-05 11:34 | 53.42285 | -6.26613 | 223 ft | 21 kts | 95° |
| 2026-05-05 11:34 | 53.42274 | -6.26395 | 218 ft | 15 kts | 96° |
| 2026-05-05 11:35 | 53.42269 | -6.26213 | 215 ft | 15 kts | 77° |
| 2026-05-05 11:35 | 53.42319 | -6.26071 | 214 ft | 14 kts | 46° |
| 2026-05-05 11:35 | 53.42386 | -6.25954 | 213 ft | 14 kts | 46° |
| 2026-05-05 11:35 | 53.42458 | -6.25833 | 210 ft | 14 kts | 45° |
| 2026-05-05 11:36 | 53.42521 | -6.25725 | 210 ft | 12 kts | 46° |
| 2026-05-05 11:36 | 53.42580 | -6.25626 | 210 ft | 11 kts | 45° |
| 2026-05-05 11:36 | 53.42636 | -6.25531 | 208 ft | 11 kts | 46° |
| 2026-05-05 11:36 | 53.42694 | -6.25430 | 208 ft | 12 kts | 46° |
| 2026-05-05 11:37 | 53.42754 | -6.25325 | 207 ft | 11 kts | 45° |
| 2026-05-05 11:37 | 53.42816 | -6.25266 | 207 ft | 10 kts | 0° |
| 2026-05-05 11:37 | 53.42894 | -6.25317 | 209 ft | 13 kts | 333° |
| 2026-05-05 11:37 | 53.42972 | -6.25388 | 210 ft | 7 kts | 332° |
| 2026-05-05 11:38 | 53.43008 | -6.25417 | 211 ft | 5 kts | 338° |
| 2026-05-05 11:38 | 53.43065 | -6.25456 | 211 ft | 12 kts | 338° |
| 2026-05-05 11:38 | 53.43144 | -6.25512 | 211 ft | 11 kts | 350° |
| 2026-05-05 11:38 | 53.43195 | -6.25456 | 211 ft | 10 kts | 72° |
| 2026-05-05 11:39 | 53.43219 | -6.25354 | 211 ft | 10 kts | 67° |
| 2026-05-05 11:39 | 53.43230 | -6.25205 | 208 ft | 15 kts | 93° |
| 2026-05-05 11:39 | 53.43220 | -6.25030 | 208 ft | 14 kts | 97° |
| 2026-05-05 11:39 | 53.43211 | -6.24881 | 208 ft | 11 kts | 96° |
| 2026-05-05 11:40 | 53.43205 | -6.24769 | 209 ft | 7 kts | 95° |
| 2026-05-05 11:40 | 53.43201 | -6.24708 | 210 ft | 4 kts | 96° |
| 2026-05-05 11:40 | 53.43198 | -6.24636 | 211 ft | 7 kts | 95° |
| 2026-05-05 11:40 | 53.43176 | -6.24586 | 212 ft | 7 kts | 181° |
| 2026-05-05 11:41 | 53.43132 | -6.24596 | 214 ft | 3 kts | 186° |
| 2026-05-05 11:41 | 53.43115 | -6.24599 | 214 ft | 2 kts | 185° |
| 2026-05-05 11:41 | 53.43103 | -6.24601 | 215 ft | 0 kts | 185° |
| 2026-05-05 11:41 | 53.43101 | -6.24601 | 215 ft | 0 kts | 185° |